Crestline, KS (66728)

11:34 AM CDT on October 23, 2014 (GMT -0500)
ESE Cherokee Co Kansas | Change Station
CLOSE
Current Station
Personal Weather Station
Location: Columbus, KS
Elevation: 951 ft
Nearby Weather Stations

Elev 951 ft 37.15 °N, 94.72 °W | Updated 14 minutes ago

Overcast
Overcast
57.5 °F
Feels Like 57.5 °F
N
0.0
Wind Variable Wind from South
Gusts 10.0 mph

Today
High -- | Low -- °F
--% Chance of Precip.
Yesterday
High -- | Low -- °F
Precip. -- in
7:34 AM 6:31 PM
Waning Crescent, 0% visible
Pressure 30.17 in
Visibility 7.0 miles
Clouds Overcast 900 ft
Dew Point 56 °F
Humidity 95%
Rainfall 0.00 in
Snow Depth Not available.
UV 1 out of 12
Pollen 1.90 out of 12
Air Quality Not available.
Flu Activity No Activity
METAR KJLN 231553Z 19007KT 7SM -RA OVC009 14/13 A3018 RMK AO2 RAE10B22 SLP217 P0001 T01390128

More Conditions Fewer Conditions

Pressure 30.17 in
Visibility 7.0 miles
Clouds Overcast 900 ft
Dew Point 56 °F
Humidity 95%
Rainfall 0.00 in
Snow Depth Not available.
UV 1 out of 12
Pollen 1.90 out of 12
Air Quality Not available.
Flu Activity No Activity
METAR KJLN 231553Z 19007KT 7SM -RA OVC009 14/13 A3018 RMK AO2 RAE10B22 SLP217 P0001 T01390128

More Conditions Fewer Conditions

10-Day Weather Forecast

Almanac

Astronomy

Oct. 23, 2014 Rise Set
Actual Time 7:34 AM CDT 6:31 PM CDT
Civil Twilight 7:07 AM CDT 6:57 PM CDT
Nautical Twilight 6:37 AM CDT 7:28 PM CDT
Astronomical Twilight 6:06 AM CDT 7:58 PM CDT
Moon 7:14 AM CDT 6:33 PM CDT
Length of Visible Light 11h 50m
Length of Day
10h 57m
Tomorrow will be 2m 12s shorter.
Waning Crescent, 0% of the Moon is Illuminated
Today
Waning Crescent
Oct 23
New
Oct 30
First Quarter
Nov 6
Full
Nov 14
Last Quarter

Today's Extremes

State Highs State Lows

Community

WunderPhotos

Upload Photos

1,764,306 photos uploaded!

WunderBlogs® & News

Nearby

Snow Depth

Station Depth Elevation
No new snow has been reported.

Earthquake Activity

City Distance Mag. Time & Date
Boley, Oklahoma 159 miles 3.5 3:34 PM CDT
2014-10-20
Minimum magnitude displayed is 2.5.

Coastal Water Temperatures

Place Temperature
No Stations Reporting

Nearby Weather Stations